Time;durP1;ratioP1;P1;durP2;ratioP2;P2;SDS_P1;SDS_P2;PMS_P1;PMS_P2;Temp;Humidity;BMP_temperature;BMP_pressure;BME280_temperature;BME280_humidity;BME280_pressure;Samples;Min_cycle;Max_cycle;Signal;HPM_P1;HPM_P2
2021/01/21 00:01:22;;;;;;;67.67;24.87;;;;;;;-12.04;75.36;101779.93;1735834;81;21115;-30
2021/01/21 00:03:50;;;;;;;60.73;24.05;;;;;;;-12.01;75.36;101774.32;1735879;82;20976;-32
2021/01/21 00:06:18;;;;;;;68.45;24.47;;;;;;;-11.96;75.29;101774.73;1736045;82;20991;-32
2021/01/21 00:08:46;;;;;;;71.65;24.07;;;;;;;-11.92;75.28;101774.27;1735987;82;21000;-30
2021/01/21 00:11:14;;;;;;;59.77;23.18;;;;;;;-11.88;75.13;101770.97;1735884;82;21210;-30
2021/01/21 00:13:42;;;;;;;62.53;24.10;;;;;;;-11.85;75.04;101772.50;1735876;82;20988;-31
2021/01/21 00:16:09;;;;;;;71.82;24.12;;;;;;;-11.81;75.03;101777.77;1735947;82;20987;-30
2021/01/21 00:18:38;;;;;;;71.77;21.80;;;;;;;-11.78;74.95;101775.20;1735981;82;20999;-30
2021/01/21 00:21:06;;;;;;;69.70;25.65;;;;;;;-11.72;74.79;101778.66;1735882;82;20960;-31
2021/01/21 00:23:34;;;;;;;95.25;24.87;;;;;;;-11.71;74.82;101771.66;1735956;82;21263;-32
2021/01/21 00:26:03;;;;;;;79.12;25.48;;;;;;;-11.66;74.66;101774.21;1735866;82;20964;-32
2021/01/21 00:28:31;;;;;;;89.72;24.87;;;;;;;-11.62;74.71;101762.50;1735918;82;20928;-32
2021/01/21 00:30:59;;;;;;;82.20;24.07;;;;;;;-11.57;74.75;101763.80;1736000;82;21582;-31
2021/01/21 00:33:27;;;;;;;71.10;22.87;;;;;;;-11.49;74.58;101767.36;1735982;82;21007;-35
2021/01/21 00:35:55;;;;;;;60.83;22.02;;;;;;;-11.45;74.34;101768.18;1735973;82;21263;-33
2021/01/21 00:38:23;;;;;;;67.27;23.77;;;;;;;-11.43;74.39;101755.45;1736267;81;20991;-30
2021/01/21 00:40:51;;;;;;;63.10;20.50;;;;;;;-11.39;74.22;101757.48;1744144;82;20929;-33
2021/01/21 00:43:19;;;;;;;60.23;23.15;;;;;;;-11.36;73.99;101749.39;1744103;82;21007;-31
2021/01/21 00:45:50;;;;;;;45.58;19.50;;;;;;;-11.33;73.97;101755.53;1744048;82;20987;-32
2021/01/21 00:48:19;;;;;;;58.40;22.48;;;;;;;-11.30;73.87;101753.30;1744192;82;22265;-31
2021/01/21 00:50:47;;;;;;;81.05;23.00;;;;;;;-11.29;73.73;101756.31;1744054;82;20960;-32
2021/01/21 00:53:15;;;;;;;106.15;24.35;;;;;;;-11.26;73.67;101759.09;1714806;82;20991;-30
2021/01/21 00:55:43;;;;;;;97.00;23.10;;;;;;;-11.20;73.72;101754.16;1744051;82;21054;-29
2021/01/21 00:58:11;;;;;;;63.50;20.32;;;;;;;-11.16;73.58;101750.80;1744023;82;21010;-30
2021/01/21 01:00:39;;;;;;;51.60;21.77;;;;;;;-11.10;73.03;101748.37;1744098;82;21417;-30
2021/01/21 01:03:07;;;;;;;61.92;22.55;;;;;;;-11.09;73.20;101748.48;1743900;82;20991;-31
2021/01/21 01:05:37;;;;;;;53.58;20.20;;;;;;;-11.08;72.95;101745.63;1744056;81;21506;-30
2021/01/21 01:08:06;;;;;;;55.48;23.40;;;;;;;-11.06;72.73;101738.75;1744050;82;21039;-30
2021/01/21 01:10:33;;;;;;;55.38;22.98;;;;;;;-11.08;72.85;101738.13;1744095;81;21003;-32
2021/01/21 01:13:02;;;;;;;59.65;21.07;;;;;;;-11.07;72.81;101732.38;1743026;82;21160;-31
2021/01/21 01:15:32;;;;;;;60.45;22.50;;;;;;;-11.03;72.91;101740.27;1744091;82;20947;-30
2021/01/21 01:18:01;;;;;;;48.92;21.50;;;;;;;-11.01;72.77;101736.67;1744005;82;21034;-30
2021/01/21 01:20:29;;;;;;;52.90;21.17;;;;;;;-10.97;72.85;101742.09;1744004;82;21017;-31
2021/01/21 01:22:57;;;;;;;54.80;20.95;;;;;;;-10.93;72.49;101746.98;1744156;82;20979;-30
2021/01/21 01:25:25;;;;;;;58.52;21.75;;;;;;;-10.91;72.53;101740.48;1744104;82;21200;-30
2021/01/21 01:27:54;;;;;;;47.45;19.20;;;;;;;-10.87;72.38;101744.16;1743907;82;21082;-31
2021/01/21 01:30:22;;;;;;;54.27;21.23;;;;;;;-10.84;72.36;101744.42;1744167;82;21039;-31
2021/01/21 01:32:52;;;;;;;49.50;20.27;;;;;;;-10.83;72.16;101737.42;1743894;81;20928;-31
2021/01/21 01:35:20;;;;;;;48.75;19.73;;;;;;;-10.80;72.10;101738.94;1743986;82;21494;-31
2021/01/21 01:37:48;;;;;;;53.45;20.23;;;;;;;-10.77;72.12;101737.95;1744125;82;21204;-30
2021/01/21 01:40:17;;;;;;;47.67;19.15;;;;;;;-10.75;72.07;101733.09;1747881;81;20971;-30
2021/01/21 01:42:47;;;;;;;56.00;19.80;;;;;;;-10.77;71.92;101734.20;1749478;81;20960;-30
2021/01/21 01:45:16;;;;;;;53.42;18.95;;;;;;;-10.76;71.82;101727.59;1749828;82;21070;-30
2021/01/21 01:47:46;;;;;;;44.42;17.73;;;;;;;-10.74;71.86;101724.45;1749919;82;21065;-30
2021/01/21 01:50:16;;;;;;;47.30;17.73;;;;;;;-10.71;71.71;101715.99;1747587;82;21389;-30
2021/01/21 01:52:44;;;;;;;48.13;18.37;;;;;;;-10.67;71.60;101721.27;1749773;82;20959;-33
2021/01/21 01:55:17;;;;;;;46.15;18.00;;;;;;;-10.66;71.39;101717.63;1748527;82;21026;-31
2021/01/21 01:57:53;;;;;;;47.67;18.60;;;;;;;-10.64;71.40;101714.88;1748143;82;21003;-30
2021/01/21 02:00:23;;;;;;;49.95;18.90;;;;;;;-10.62;71.19;101714.64;1749909;82;20952;-30
2021/01/21 02:02:52;;;;;;;43.25;16.32;;;;;;;-10.61;71.41;101714.28;1721960;82;21379;-33
2021/01/21 02:05:22;;;;;;;45.00;19.30;;;;;;;-10.57;71.28;101718.81;1749892;82;20933;-31
2021/01/21 02:07:50;;;;;;;48.95;18.07;;;;;;;-10.57;71.33;101718.81;1749813;82;21036;-30
2021/01/21 02:10:19;;;;;;;51.73;18.42;;;;;;;-10.57;71.33;101722.56;1749775;81;21105;-31
2021/01/21 02:13:22;;;;;;;42.43;18.12;;;;;;;-10.55;71.30;101717.31;1748270;82;20931;-30
2021/01/21 02:16:00;;;;;;;42.67;16.70;;;;;;;-10.54;71.38;101713.70;1749904;82;22256;-30
2021/01/21 02:18:46;;;;;;;45.52;18.75;;;;;;;-10.50;71.35;101710.21;1749784;82;21061;-30
2021/01/21 02:21:48;;;;;;;53.58;18.45;;;;;;;-10.48;71.37;101709.61;1749927;82;21407;-30
2021/01/21 02:24:46;;;;;;;49.25;18.32;;;;;;;-10.43;71.31;101704.98;1749763;82;21038;-39
2021/01/21 02:27:22;;;;;;;41.80;17.92;;;;;;;-10.31;71.33;101701.37;1853663;77;22590;-31
2021/01/21 02:29:50;;;;;;;47.78;17.12;;;;;;;-10.30;71.25;101708.14;1820694;78;20926;-30
2021/01/21 02:32:39;;;;;;;51.42;19.00;;;;;;;-10.26;71.07;101703.89;1820616;78;21201;-31
2021/01/21 02:35:18;;;;;;;45.48;17.82;;;;;;;-10.25;70.74;101704.03;1825102;78;21033;-32
2021/01/21 02:37:52;;;;;;;44.38;18.80;;;;;;;-10.26;70.62;101703.89;1825287;78;20974;-32
2021/01/21 02:40:22;;;;;;;57.33;18.87;;;;;;;-10.25;70.61;101700.64;1825612;78;20982;-32
2021/01/21 02:42:55;;;;;;;48.35;17.98;;;;;;;-10.21;70.47;101696.42;1823778;78;20986;-32
2021/01/21 02:45:25;;;;;;;45.25;17.37;;;;;;;-10.18;70.38;101702.94;1825581;78;21371;-31
2021/01/21 02:47:54;;;;;;;39.05;17.35;;;;;;;-10.14;70.40;101706.56;1825533;78;20958;-31
2021/01/21 02:50:26;;;;;;;41.88;17.23;;;;;;;-10.09;70.36;101709.12;1820012;78;21061;-32
2021/01/21 02:52:56;;;;;;;44.03;17.52;;;;;;;-10.05;70.18;101702.72;1825562;78;21018;-31
2021/01/21 02:55:32;;;;;;;47.50;16.95;;;;;;;-10.03;69.91;101697.46;1825586;78;21497;-32
2021/01/21 02:58:32;;;;;;;39.83;16.77;;;;;;;-10.05;70.06;101702.36;1825186;78;21424;-31
2021/01/21 03:01:03;;;;;;;38.88;16.87;;;;;;;-10.04;69.53;101690.69;1825452;78;20884;-31
2021/01/21 03:03:32;;;;;;;47.95;17.32;;;;;;;-10.06;69.57;101695.95;1825685;78;20887;-30
2021/01/21 03:06:02;;;;;;;43.87;17.98;;;;;;;-10.07;69.85;101689.19;1825519;78;20887;-32
2021/01/21 03:08:33;;;;;;;48.33;17.42;;;;;;;-10.07;69.92;101690.08;1825312;78;20998;-31
2021/01/21 03:11:13;;;;;;;39.83;15.40;;;;;;;-10.07;69.92;101685.06;1825638;78;21533;-32
2021/01/21 03:13:46;;;;;;;41.35;18.02;;;;;;;-10.05;69.71;101685.17;1824601;78;21010;-30
2021/01/21 03:16:14;;;;;;;47.90;19.92;;;;;;;-10.05;69.27;101685.17;1825514;78;21029;-31
2021/01/21 03:18:45;;;;;;;44.00;17.82;;;;;;;-10.12;69.57;101684.67;1825644;78;21005;-31
2021/01/21 03:21:13;;;;;;;55.25;19.65;;;;;;;-10.13;69.80;101682.91;1825607;78;20950;-30
2021/01/21 03:23:45;;;;;;;37.80;16.87;;;;;;;-10.14;69.94;101678.65;1825563;78;21425;-33
2021/01/21 03:26:14;;;;;;;44.73;16.85;;;;;;;-10.08;69.92;101687.43;1825111;78;21002;-32
2021/01/21 03:28:44;;;;;;;48.33;18.32;;;;;;;-10.10;69.91;101678.55;1825395;78;21014;-32
2021/01/21 03:31:13;;;;;;;40.45;18.25;;;;;;;-10.12;70.02;101684.67;1826363;78;21009;-32
2021/01/21 03:33:41;;;;;;;41.83;17.95;;;;;;;-10.11;70.23;101684.27;1826440;78;20864;-32
2021/01/21 03:36:10;;;;;;;41.28;16.27;;;;;;;-10.09;70.37;101686.56;1826385;78;21371;-31
2021/01/21 03:38:37;;;;;;;43.05;18.17;;;;;;;-10.06;70.43;101675.91;1825888;78;21521;-31
2021/01/21 03:41:25;;;;;;;41.08;17.73;;;;;;;-10.04;70.46;101674.41;1820986;78;20958;-32
2021/01/21 03:43:55;;;;;;;48.00;19.17;;;;;;;-10.03;70.60;101671.16;1823496;78;21030;-31
2021/01/21 03:46:24;;;;;;;41.98;17.12;;;;;;;-10.01;70.71;101668.40;1825323;78;20990;-32
2021/01/21 03:48:52;;;;;;;49.05;18.10;;;;;;;-9.99;70.85;101670.66;1825807;78;21423;-32
2021/01/21 03:51:28;;;;;;;76.28;18.67;;;;;;;-10.00;70.85;101662.63;1791767;78;20922;-31
2021/01/21 03:53:58;;;;;;;39.88;17.98;;;;;;;-9.97;71.01;101670.44;1823580;78;20986;-32
2021/01/21 03:56:28;;;;;;;84.75;19.42;;;;;;;-9.94;71.02;101671.05;1825843;78;20990;-31
2021/01/21 03:58:56;;;;;;;68.02;19.05;;;;;;;-9.91;71.13;101674.70;1825882;78;20991;-31
2021/01/21 04:01:25;;;;;;;52.10;17.27;;;;;;;-9.86;71.06;101672.56;1825838;78;22163;-31
2021/01/21 04:03:53;;;;;;;54.75;17.75;;;;;;;-9.82;71.14;101670.84;1825741;78;20986;-33
2021/01/21 04:06:23;;;;;;;62.75;18.23;;;;;;;-9.79;71.23;101681.13;1825823;78;21407;-33
2021/01/21 04:08:53;;;;;;;63.80;18.62;;;;;;;-9.75;71.30;101678.47;1825226;78;20923;-31
2021/01/21 04:11:23;;;;;;;58.23;18.15;;;;;;;-9.70;71.32;101677.25;1824000;78;20915;-31
2021/01/21 04:13:53;;;;;;;35.03;17.62;;;;;;;-9.68;71.36;101676.61;1825293;78;21206;-32
2021/01/21 04:16:21;;;;;;;57.78;18.62;;;;;;;-9.64;71.28;101676.50;1825849;78;20931;-32
2021/01/21 04:18:49;;;;;;;51.00;17.57;;;;;;;-9.61;71.17;101672.09;1825754;78;20994;-31
2021/01/21 04:21:19;;;;;;;46.33;17.77;;;;;;;-9.59;71.13;101680.66;1825703;78;21537;-33
2021/01/21 04:23:48;;;;;;;44.48;18.67;;;;;;;-9.59;71.12;101670.23;1825852;78;20974;-32
2021/01/21 04:26:17;;;;;;;52.40;19.05;;;;;;;-9.56;71.19;101675.50;1823075;78;22406;-32
2021/01/21 04:28:47;;;;;;;52.17;18.70;;;;;;;-9.54;71.23;101675.24;1825192;78;21037;-32
2021/01/21 04:31:15;;;;;;;45.75;19.23;;;;;;;-9.50;71.37;101679.25;1825794;78;20998;-31
2021/01/21 04:33:43;;;;;;;48.20;18.92;;;;;;;-9.47;71.41;101674.48;1825709;78;20911;-31
2021/01/21 04:36:12;;;;;;;46.50;18.27;;;;;;;-9.47;71.45;101672.88;1825900;78;21025;-32
2021/01/21 04:38:42;;;;;;;45.83;18.10;;;;;;;-9.44;71.38;101684.41;1825909;78;22553;-31
2021/01/21 04:41:12;;;;;;;35.38;14.87;;;;;;;-9.44;71.38;101683.55;1825692;78;21025;-32
2021/01/21 04:44:00;;;;;;;42.43;19.10;;;;;;;-9.43;71.65;101684.05;1824712;78;20927;-30
2021/01/21 04:46:48;;;;;;;47.62;18.62;;;;;;;-9.43;71.69;101686.16;1825207;78;20978;-31
2021/01/21 04:49:17;;;;;;;50.43;18.85;;;;;;;-9.42;71.84;101678.28;1825754;78;20919;-30
2021/01/21 04:51:46;;;;;;;58.70;19.60;;;;;;;-9.39;71.92;101692.32;1790912;78;21156;-31
2021/01/21 04:54:18;;;;;;;57.25;19.95;;;;;;;-9.39;71.97;101689.81;1790411;78;21034;-31
2021/01/21 04:56:48;;;;;;;50.88;18.75;;;;;;;-9.36;71.99;101693.82;1824249;78;20943;-31
2021/01/21 04:59:37;;;;;;;50.52;18.62;;;;;;;-9.35;72.08;101693.06;1798415;78;21053;-32
2021/01/21 05:02:06;;;;;;;51.23;20.08;;;;;;;-9.32;72.15;101690.81;1825767;78;20970;-32
2021/01/21 05:04:34;;;;;;;47.58;20.10;;;;;;;-9.29;72.13;101693.95;1796034;78;21157;-31
2021/01/21 05:07:08;;;;;;;45.63;19.75;;;;;;;-9.28;72.24;101681.91;1824173;78;21053;-30
2021/01/21 05:09:37;;;;;;;41.95;18.40;;;;;;;-9.26;72.09;101681.27;1825797;78;20943;-32
2021/01/21 05:12:07;;;;;;;47.08;19.77;;;;;;;-9.25;72.03;101689.30;1825707;78;20993;-31
2021/01/21 05:14:35;;;;;;;39.53;17.50;;;;;;;-9.25;72.07;101691.80;1825805;78;21283;-31
2021/01/21 05:17:06;;;;;;;46.58;19.48;;;;;;;-9.21;72.10;101688.31;1825755;78;21427;-32
2021/01/21 05:19:47;;;;;;;39.23;17.95;;;;;;;-9.19;72.08;101685.55;1825617;78;21030;-32
2021/01/21 05:22:35;;;;;;;48.42;18.75;;;;;;;-9.17;72.11;101680.28;1825840;78;21018;-31
2021/01/21 05:25:08;;;;;;;48.70;17.37;;;;;;;-9.13;72.04;101689.41;1820868;78;21001;-33
2021/01/21 05:27:38;;;;;;;41.35;18.82;;;;;;;-9.12;72.24;101690.30;1818115;78;21545;-33
2021/01/21 05:30:20;;;;;;;49.10;19.55;;;;;;;-9.05;72.27;101689.18;1847817;76;22777;-31
2021/01/21 05:32:50;;;;;;;48.85;20.02;;;;;;;-9.06;72.34;101686.17;1818041;79;20939;-32
2021/01/21 05:35:19;;;;;;;51.85;20.90;;;;;;;-9.04;72.36;101698.07;1784781;79;21371;-33
2021/01/21 05:37:54;;;;;;;44.55;19.52;;;;;;;-9.00;72.33;101710.11;1818081;78;20998;-30
2021/01/21 05:40:23;;;;;;;48.63;20.82;;;;;;;-8.99;72.37;101706.84;1815012;79;21037;-33
2021/01/21 05:42:56;;;;;;;;;;;;;;;-8.92;72.44;101709.48;1761299;79;21030;-30
2021/01/21 05:45:31;;;;;;;54.25;19.77;;;;;;;-8.87;72.37;101705.70;1816821;79;20136;-32
2021/01/21 05:48:01;;;;;;;50.23;19.30;;;;;;;-8.84;72.39;101708.84;1817261;79;21415;-32
2021/01/21 05:50:30;;;;;;;47.60;19.52;;;;;;;-8.79;72.37;101706.31;1818046;79;21014;-31
2021/01/21 05:53:00;;;;;;;51.53;20.15;;;;;;;-8.74;72.37;101702.53;1818203;79;21413;-32
2021/01/21 05:55:29;;;;;;;47.98;18.65;;;;;;;-8.68;72.37;101708.07;1787278;79;21294;-32
2021/01/21 05:57:59;;;;;;;50.05;19.98;;;;;;;-8.60;72.42;101714.07;1733341;79;20903;-32
2021/01/21 06:00:27;;;;;;;49.65;18.82;;;;;;;-8.54;72.35;101714.19;1818110;79;21407;-31
2021/01/21 06:03:00;;;;;;;43.83;20.12;;;;;;;-8.46;72.13;101713.52;1817753;78;20991;-31
2021/01/21 06:05:51;;;;;;;39.58;17.87;;;;;;;-8.38;72.09;101704.04;1816940;79;21054;-32
2021/01/21 06:08:22;;;;;;;46.75;19.52;;;;;;;-8.33;72.10;101709.07;1818042;79;21010;-32
2021/01/21 06:10:53;;;;;;;47.20;19.62;;;;;;;-8.29;71.99;101706.03;1818135;79;20978;-32
2021/01/21 06:13:21;;;;;;;51.77;20.08;;;;;;;-8.23;71.99;101708.13;1786977;79;21344;-32
2021/01/21 06:15:49;;;;;;;48.68;18.80;;;;;;;-8.18;71.94;101708.13;1818087;79;20986;-32
2021/01/21 06:18:17;;;;;;;45.67;18.10;;;;;;;-8.11;71.98;101704.43;1818012;78;21497;-32
2021/01/21 06:21:05;;;;;;;43.85;18.75;;;;;;;-8.09;71.77;101696.27;1817977;79;21039;-32
2021/01/21 06:23:34;;;;;;;41.90;19.32;;;;;;;-8.03;71.79;101691.20;1810779;79;20970;-35
2021/01/21 06:26:04;;;;;;;41.98;19.02;;;;;;;-7.97;71.83;101695.44;1816073;79;21447;-32
2021/01/21 06:28:31;;;;;;;47.10;20.85;;;;;;;-7.92;71.84;101692.92;1786049;78;21034;-35
2021/01/21 06:31:00;;;;;;;45.52;20.30;;;;;;;-7.84;71.83;101694.37;1818035;77;21029;-32
2021/01/21 06:33:36;;;;;;;47.93;19.20;;;;;;;-7.74;71.82;101683.74;1786881;79;20935;-31
2021/01/21 06:36:07;;;;;;;46.00;18.80;;;;;;;-7.64;71.66;101673.63;1817859;78;21018;-35
2021/01/21 06:38:41;;;;;;;42.20;19.55;;;;;;;-7.56;71.67;101677.59;1818066;79;21436;-35
2021/01/21 06:41:13;;;;;;;40.85;19.05;;;;;;;-7.46;71.53;101684.55;1817506;78;20868;-33
2021/01/21 06:43:42;;;;;;;47.03;19.75;;;;;;;-7.36;71.38;101680.32;1816113;79;20994;-31
2021/01/21 06:46:15;;;;;;;44.05;19.20;;;;;;;-7.26;71.52;101676.84;1817373;79;20978;-32
2021/01/21 06:48:48;;;;;;;50.00;19.48;;;;;;;-7.16;71.28;101677.54;1817545;79;21473;-35
2021/01/21 06:51:16;;;;;;;46.75;18.87;;;;;;;-7.11;71.24;101666.16;1817440;78;21366;-31
2021/01/21 06:53:47;;;;;;;45.25;18.90;;;;;;;-7.06;71.21;101672.40;1817419;79;20931;-36
2021/01/21 06:56:15;;;;;;;39.73;17.90;;;;;;;-6.97;71.25;101673.05;1817504;79;21025;-31
2021/01/21 06:58:50;;;;;;;41.50;19.60;;;;;;;-6.88;71.14;101679.54;1786152;79;20943;-34
2021/01/21 07:01:42;;;;;;;42.45;18.62;;;;;;;-6.84;71.05;101672.70;1817636;79;20935;-32
2021/01/21 07:04:21;;;;;;;46.02;18.65;;;;;;;-6.78;70.94;101669.34;1817398;79;21196;-32
2021/01/21 07:06:58;;;;;;;40.65;18.70;;;;;;;-6.72;71.06;101667.66;1817489;79;20983;-32
2021/01/21 07:09:26;;;;;;;44.10;20.30;;;;;;;-6.68;71.09;101660.80;1817584;79;20899;-31
2021/01/21 07:11:57;;;;;;;45.17;19.48;;;;;;;-6.67;70.98;101663.81;1817410;79;21462;-32
2021/01/21 07:14:29;;;;;;;47.93;21.12;;;;;;;-6.63;70.99;101663.27;1817485;78;21006;-33
2021/01/21 07:17:04;;;;;;;46.83;20.82;;;;;;;-6.62;71.25;101671.31;1817544;78;22080;-33
2021/01/21 07:19:44;;;;;;;45.28;20.55;;;;;;;-6.57;71.26;101667.87;1817417;78;20974;-32
2021/01/21 07:22:24;;;;;;;41.35;19.07;;;;;;;-6.54;71.02;101667.71;1817531;79;21069;-32
2021/01/21 07:24:58;;;;;;;41.10;18.48;;;;;;;-6.54;71.18;101660.52;1817410;78;20998;-33
2021/01/21 07:27:28;;;;;;;47.27;19.70;;;;;;;-6.51;71.11;101654.06;1817635;79;20903;-32
2021/01/21 07:30:23;;;;;;;57.80;20.80;;;;;;;-6.45;71.07;101649.81;1814140;78;20994;-35
2021/01/21 07:33:19;;;;;;;46.45;19.73;;;;;;;-6.39;71.07;101644.34;1817251;79;21018;-31
2021/01/21 07:35:47;;;;;;;43.75;20.37;;;;;;;-6.29;70.89;101644.23;1812164;79;20970;-32
2021/01/21 07:38:47;;;;;;;42.60;20.40;;;;;;;-6.23;70.78;101644.64;1817476;78;21002;-32
2021/01/21 07:41:48;;;;;;;44.10;21.02;;;;;;;-6.17;70.82;101644.20;1817543;79;21478;-32
2021/01/21 07:44:16;;;;;;;38.42;17.05;;;;;;;-6.04;70.65;101658.89;1817425;79;21412;-31
2021/01/21 07:46:44;;;;;;;43.98;18.95;;;;;;;-6.02;70.20;101657.34;1817388;78;20951;-32
2021/01/21 07:49:28;;;;;;;44.18;19.57;;;;;;;-5.99;70.42;101660.04;1786128;79;21022;-32
2021/01/21 07:52:03;;;;;;;54.95;20.43;;;;;;;-5.90;70.42;101661.95;1817400;79;20931;-33
2021/01/21 07:54:33;;;;;;;49.27;20.85;;;;;;;-5.78;70.29;101653.94;1817559;78;20907;-32
2021/01/21 07:57:01;;;;;;;43.85;20.30;;;;;;;-5.68;70.08;101652.05;1815362;79;21236;-31
2021/01/21 07:59:29;;;;;;;55.33;20.95;;;;;;;-5.59;70.01;101655.55;1817411;79;21065;-32
2021/01/21 08:01:58;;;;;;;41.10;20.37;;;;;;;-5.51;69.81;101655.28;1817372;79;21026;-31
2021/01/21 08:04:27;;;;;;;45.52;19.25;;;;;;;-5.44;69.63;101663.25;1817386;79;20935;-31
2021/01/21 08:06:56;;;;;;;39.18;17.55;;;;;;;-5.41;69.60;101653.39;1817330;79;20915;-31
2021/01/21 08:09:24;;;;;;;40.35;18.75;;;;;;;-5.37;69.44;101657.86;1817367;79;21368;-31
2021/01/21 08:11:54;;;;;;;36.60;18.82;;;;;;;-5.38;69.49;101651.06;1817413;78;20955;-32
2021/01/21 08:14:22;;;;;;;48.17;20.70;;;;;;;-5.35;69.58;101658.83;1817514;78;20990;-33
2021/01/21 08:16:52;;;;;;;43.33;21.62;;;;;;;-5.30;69.33;101649.91;1817338;79;20900;-32
2021/01/21 08:19:20;;;;;;;37.90;18.70;;;;;;;-5.28;69.36;101653.41;1786264;79;21513;-31
2021/01/21 08:21:49;;;;;;;51.75;19.90;;;;;;;-5.28;69.52;101649.61;1817432;79;22398;-31
2021/01/21 08:24:17;;;;;;;44.58;20.75;;;;;;;-5.25;69.71;101647.28;1817284;79;20986;-31
2021/01/21 08:26:44;;;;;;;44.38;19.48;;;;;;;-5.21;69.83;101647.97;1817465;78;21014;-31
2021/01/21 08:29:15;;;;;;;40.88;19.05;;;;;;;-5.13;69.79;101649.73;1817442;78;21128;-32
2021/01/21 08:31:49;;;;;;;56.33;19.30;;;;;;;-5.12;70.13;101638.00;1817355;79;20995;-31
2021/01/21 08:34:21;;;;;;;62.53;19.57;;;;;;;-5.11;70.39;101629.64;1817502;78;21353;-32
2021/01/21 08:36:50;;;;;;;79.87;24.55;;;;;;;-5.05;70.68;101628.77;1817367;79;21478;-33
2021/01/21 08:39:18;;;;;;;84.83;20.10;;;;;;;-5.01;71.09;101633.23;1817363;78;20955;-33
2021/01/21 08:41:46;;;;;;;53.70;21.65;;;;;;;-4.91;71.17;101623.33;1786144;79;21053;-32
2021/01/21 08:44:16;;;;;;;42.17;16.50;;;;;;;-4.81;71.07;101629.84;1731456;79;21014;-32
2021/01/21 08:46:46;;;;;;;49.40;18.98;;;;;;;-4.72;70.91;101627.02;1817386;79;21424;-32
2021/01/21 08:49:14;;;;;;;48.42;18.12;;;;;;;-4.65;70.82;101624.98;1761575;79;21018;-32
2021/01/21 08:51:44;;;;;;;39.60;17.07;;;;;;;-4.59;70.99;101609.70;1817289;79;20966;-32
2021/01/21 08:54:19;;;;;;;44.35;17.48;;;;;;;-4.49;70.78;101609.48;1817323;79;21034;-32
2021/01/21 08:57:07;;;;;;;;;;;;;;;-4.38;70.56;101619.87;1820162;79;20971;-33
2021/01/21 08:59:35;;;;;;;68.80;20.55;;;;;;;-4.27;70.68;101614.59;1817407;79;22246;-32
2021/01/21 09:02:07;;;;;;;46.42;16.95;;;;;;;-4.18;70.76;101615.12;1817266;78;20982;-31
2021/01/21 09:04:36;;;;;;;44.18;17.77;;;;;;;-4.09;70.73;101619.87;1781372;80;20993;-32
2021/01/21 09:07:07;;;;;;;42.90;17.57;;;;;;;-4.02;70.62;101611.00;1781508;79;20930;-34
2021/01/21 09:09:39;;;;;;;47.48;18.70;;;;;;;-3.95;70.72;101607.67;1762665;81;20954;-31
2021/01/21 09:12:18;;;;;;;48.83;17.07;;;;;;;-3.94;71.29;101613.21;1762610;81;20986;-32
2021/01/21 09:15:11;;;;;;;41.98;17.90;;;;;;;-3.94;71.81;101611.95;1817319;79;20947;-35
2021/01/21 09:17:40;;;;;;;34.53;15.68;;;;;;;-3.93;72.57;101609.02;1817309;77;21065;-32
2021/01/21 09:20:22;;;;;;;44.93;16.93;;;;;;;-3.91;72.92;101610.86;1817392;79;21248;-31
2021/01/21 09:22:52;;;;;;;40.30;16.57;;;;;;;-3.86;73.01;101616.20;1815736;79;20967;-31
2021/01/21 09:25:26;;;;;;;42.17;18.30;;;;;;;-3.79;73.36;101613.24;1817543;79;22085;-31
2021/01/21 09:27:57;;;;;;;44.38;18.80;;;;;;;-3.68;73.43;101609.19;1788623;79;21177;-31
2021/01/21 09:30:25;;;;;;;42.53;17.27;;;;;;;-3.57;73.35;101606.91;1816855;77;20982;-31
2021/01/21 09:32:54;;;;;;;61.98;18.77;;;;;;;-3.34;73.13;101611.15;1817244;78;20986;-32
2021/01/21 09:35:23;;;;;;;53.35;18.23;;;;;;;-3.20;72.78;101606.45;1817383;79;20962;-32
2021/01/21 09:37:53;;;;;;;55.23;17.57;;;;;;;-3.08;72.72;101606.27;1817385;79;21128;-31
2021/01/21 09:40:28;;;;;;;42.95;17.52;;;;;;;-3.00;72.41;101597.83;1817309;79;20990;-32
2021/01/21 09:42:58;;;;;;;64.10;19.27;;;;;;;-2.99;72.24;101592.38;1817324;79;20927;-31
2021/01/21 09:45:27;;;;;;;48.20;19.32;;;;;;;-3.00;72.41;101591.50;1817338;79;20916;-33
2021/01/21 09:47:55;;;;;;;47.83;16.20;;;;;;;-2.95;72.44;101582.48;1817437;79;21078;-31
2021/01/21 09:50:24;;;;;;;41.77;16.90;;;;;;;-2.90;72.50;101581.09;1817310;79;21198;-32
2021/01/21 09:52:52;;;;;;;63.02;18.10;;;;;;;-2.84;72.49;101579.27;1817341;79;20995;-32
2021/01/21 09:55:20;;;;;;;55.23;19.17;;;;;;;-2.81;72.86;101582.37;1817309;79;20955;-32
2021/01/21 09:57:48;;;;;;;33.85;16.02;;;;;;;-2.73;72.96;101579.85;1817340;79;21053;-32
2021/01/21 10:00:18;;;;;;;45.28;16.75;;;;;;;-2.56;72.79;101578.22;1817368;79;21018;-33
2021/01/21 10:02:45;;;;;;;40.43;16.67;;;;;;;-2.47;72.49;101567.69;1817335;79;21361;-31
2021/01/21 10:05:15;;;;;;;35.80;16.50;;;;;;;-2.36;72.54;101574.59;1817211;79;21038;-33
2021/01/21 10:07:44;;;;;;;49.70;17.80;;;;;;;-2.19;72.36;101570.39;1817398;79;20959;-32
2021/01/21 10:10:12;;;;;;;40.95;17.10;;;;;;;-2.04;72.04;101568.66;1817195;78;21058;-33
2021/01/21 10:12:41;;;;;;;40.88;16.80;;;;;;;-1.94;71.64;101558.95;1817465;78;21514;-31
2021/01/21 10:15:10;;;;;;;35.92;15.83;;;;;;;-2.00;71.44;101567.54;1817240;79;21188;-31
2021/01/21 10:17:39;;;;;;;40.10;16.10;;;;;;;-2.16;71.83;101566.74;1817498;79;21616;-31
2021/01/21 10:20:09;;;;;;;41.60;16.10;;;;;;;-2.34;72.50;101561.59;1817451;79;20923;-33
2021/01/21 10:22:38;;;;;;;38.30;16.37;;;;;;;-2.52;73.15;101558.97;1817458;79;20915;-31
2021/01/21 10:25:08;;;;;;;43.30;16.75;;;;;;;-2.65;73.73;101558.34;1817410;78;20871;-31
2021/01/21 10:27:36;;;;;;;48.92;19.75;;;;;;;-2.70;74.06;101555.92;1817465;79;22227;-33
2021/01/21 10:30:06;;;;;;;48.35;17.02;;;;;;;-2.67;74.24;101551.43;1816905;77;21082;-31
2021/01/21 10:32:34;;;;;;;53.68;18.35;;;;;;;-2.63;74.55;101542.81;1817396;79;20970;-32
2021/01/21 10:35:05;;;;;;;41.13;18.00;;;;;;;-2.61;74.83;101539.06;1817415;79;20971;-30
2021/01/21 10:37:33;;;;;;;36.88;16.93;;;;;;;-2.51;74.95;101524.83;1817498;78;20955;-31
2021/01/21 10:40:03;;;;;;;42.80;16.42;;;;;;;-2.39;75.02;101524.59;1817557;79;22041;-32
2021/01/21 10:42:31;;;;;;;40.90;15.58;;;;;;;-2.32;75.35;101529.56;1817474;79;21331;-31
2021/01/21 10:45:00;;;;;;;42.45;17.15;;;;;;;-2.24;75.41;101526.16;1817386;79;20982;-31
2021/01/21 10:47:30;;;;;;;42.38;17.23;;;;;;;-2.21;75.62;101519.97;1817444;78;20903;-33
2021/01/21 10:49:59;;;;;;;49.13;17.37;;;;;;;-2.20;75.89;101511.56;1817384;79;21010;-32
2021/01/21 10:52:27;;;;;;;43.80;15.95;;;;;;;-2.19;76.25;101508.23;1817477;78;21196;-31
2021/01/21 10:54:55;;;;;;;72.80;18.25;;;;;;;-2.22;76.58;101510.23;1817332;79;20963;-32
2021/01/21 10:59:06;;;;;;;74.42;18.05;;;;;;;-2.11;77.08;101493.40;1776869;79;22722;-34
2021/01/21 11:01:35;;;;;;;40.50;15.80;;;;;;;-2.20;77.48;101493.80;1749808;81;20939;-33
2021/01/21 11:04:04;;;;;;;41.15;15.95;;;;;;;-2.11;77.36;101496.83;1749736;82;21487;-32
2021/01/21 11:06:32;;;;;;;56.13;17.05;;;;;;;-2.05;77.41;101488.24;1749862;82;21525;-33
2021/01/21 11:09:00;;;;;;;86.02;17.05;;;;;;;-1.99;77.54;101492.76;1749732;82;21002;-32
2021/01/21 11:11:28;;;;;;;63.60;18.40;;;;;;;-2.04;77.67;101487.83;1749700;80;21010;-32
2021/01/21 11:13:55;;;;;;;45.38;18.82;;;;;;;-2.05;77.76;101476.82;1749746;82;21011;-31
2021/01/21 11:16:23;;;;;;;44.77;17.20;;;;;;;-2.00;77.86;101481.25;1749798;82;21192;-31
2021/01/21 11:18:51;;;;;;;46.25;17.55;;;;;;;-1.90;77.81;101480.51;1749626;82;21003;-31
2021/01/21 11:21:21;;;;;;;41.98;15.28;;;;;;;-1.80;77.65;101475.88;1749865;82;20999;-32
2021/01/21 11:23:49;;;;;;;35.45;15.80;;;;;;;-1.71;77.44;101476.33;1749665;82;20987;-32
2021/01/21 11:26:17;;;;;;;49.00;16.90;;;;;;;-1.74;77.48;101478.31;1749803;82;21381;-33
2021/01/21 11:28:45;;;;;;;35.43;15.58;;;;;;;-1.72;77.61;101480.05;1749780;82;22231;-31